Date,TemperatureHighF,TemperatureAvgF,TemperatureLowF,DewpointHighF,DewpointAvgF,DewpointLowF,HumidityHigh,HumidityAvg,HumidityLow,PressureMaxIn,PressureMinIn,WindSpeedMaxMPH,WindSpeedAvgMPH,GustSpeedMaxMPH,PrecipitationSumIn
2013-1-1,58.9,53.5,48.6,50.1,46.1,44.0,88,77,59,30.14,30.03,5,2,9,0.00
2013-1-2,55.6,50.1,46.2,46.6,44.2,38.7,88,80,67,30.35,30.12,8,2,12,0.32
2013-1-3,55.3,52.1,49.0,49.8,45.9,37.6,87,80,62,30.67,30.34,11,7,20,0.17
2013-1-4,66.7,51.4,42.6,48.2,41.2,37.6,90,71,40,30.66,30.50,5,0,7,0.01
2013-1-5,67.7,52.7,44.1,44.0,39.5,37.2,78,63,33,30.51,30.29,7,1,12,0.00
2013-1-6,66.2,53.2,44.2,47.7,40.8,35.0,81,64,46,30.37,30.28,2,0,5,0.00
2013-1-7,71.3,52.4,42.7,51.5,43.7,35.9,84,73,49,30.30,30.20,4,0,8,0.00
2013-1-8,64.8,52.7,45.1,54.0,46.6,41.2,94,80,60,30.35,30.28,3,0,5,0.00
2013-1-9,59.5,50.1,42.3,51.3,44.8,39.0,93,83,66,30.31,30.15,7,2,14,0.01
2013-1-10,62.7,55.9,47.7,47.5,44.9,40.0,85,67,55,30.15,30.10,16,6,29,0.00
2013-1-11,61.7,54.9,46.7,49.0,45.3,41.5,88,71,54,30.18,30.10,6,2,11,0.00
2013-1-12,61.7,51.8,43.0,50.3,43.2,35.8,85,73,47,30.16,29.97,6,2,12,0.00
2013-1-13,55.7,51.9,47.2,48.7,42.7,37.8,88,71,57,29.96,29.79,10,4,20,0.28
2013-1-14,56.0,49.0,43.8,42.6,39.2,36.0,85,70,50,30.03,29.93,7,2,13,0.01
2013-1-15,57.0,50.4,41.5,44.8,39.8,32.7,87,68,46,29.99,29.79,18,5,222,0.11
2013-1-16,59.1,54.2,47.7,47.3,42.7,37.2,75,65,51,29.95,29.63,13,6,22,0.00
2013-1-17,59.8,49.9,45.8,48.1,42.3,37.8,88,75,58,29.85,29.65,10,2,15,0.00
2013-1-18,60.5,54.9,49.4,53.4,46.9,37.4,87,75,57,29.81,29.54,7,2,14,0.00
2013-1-19,64.8,58.3,51.9,56.0,51.6,47.3,92,79,53,29.54,29.11,11,6,19,0.37
2013-1-20,55.7,51.9,47.4,50.4,44.8,37.9,89,77,57,29.63,29.12,14,4,20,0.08
2013-1-21,57.2,52.1,46.4,47.9,40.7,33.8,85,66,49,29.88,29.56,15,5,25,0.00
2013-1-22,55.5,50.4,42.5,46.7,38.3,32.7,86,64,48,29.89,29.53,15,5,24,0.23
2013-1-23,51.4,49.0,44.1,42.0,36.9,32.5,86,63,55,29.83,29.53,17,8,27,0.54
2013-1-24,51.9,49.4,41.2,44.9,37.8,31.3,86,65,50,29.84,29.59,13,5,22,0.46
2013-1-25,56.9,46.5,40.1,42.7,37.7,33.3,92,73,42,29.95,29.81,7,2,12,0.01
2013-1-26,54.7,48.8,43.8,48.5,42.0,34.2,92,78,63,30.14,29.77,7,2,12,0.12
2013-1-27,59.7,52.0,45.1,51.8,47.6,41.5,92,85,70,30.14,29.85,7,3,18,0.01
2013-1-28,59.3,54.2,48.2,50.8,44.9,40.1,88,72,54,30.34,29.85,10,4,16,0.41
2013-1-29,61.2,50.9,44.3,50.0,43.8,38.3,88,77,61,30.41,30.34,5,1,10,0.00
2013-1-30,65.9,54.1,43.0,51.4,45.1,36.4,86,73,52,30.37,30.29,6,2,10,0.00
2013-1-31,68.8,58.8,48.7,51.5,47.8,43.5,91,69,51,30.47,30.36,6,2,10,0.00
2013-2-1,64.0,55.9,47.8,56.1,48.1,43.0,95,78,47,30.36,29.75,12,5,21,0.02
2013-2-2,63.2,52.3,46.5,47.9,41.4,35.5,89,67,48,29.87,29.62,19,8,33,0.28
2013-2-3,51.2,47.6,40.7,36.1,30.5,21.7,72,52,32,30.35,29.85,11,4,33,0.00
2013-2-4,61.2,50.1,40.4,42.3,37.3,31.7,77,63,38,30.39,30.30,8,3,18,0.00
2013-2-5,62.8,53.2,44.7,50.2,43.8,36.7,86,71,51,30.31,29.96,9,3,15,0.00
2013-2-6,56.7,52.4,48.8,46.0,38.2,33.4,84,59,43,29.96,29.74,16,8,32,0.10
2013-2-7,51.5,49.2,45.6,39.6,32.0,21.5,75,53,33,30.09,29.80,12,5,23,0.06
2013-2-8,54.7,47.0,40.9,40.5,36.2,30.3,83,67,49,30.08,29.89,9,2,14,0.01
2013-2-9,48.8,45.0,40.1,38.4,32.7,26.5,82,63,44,30.19,30.01,11,5,20,0.01
2013-2-10,53.5,49.8,44.7,47.1,41.5,35.1,79,73,64,30.14,29.80,10,5,15,0.01
2013-2-11,57.0,51.5,49.0,48.2,36.7,31.7,80,57,47,29.74,29.61,19,7,29,0.10
2013-2-12,53.5,49.2,44.2,42.3,36.1,29.8,80,61,43,29.98,29.65,13,5,29,0.37
2013-2-13,56.0,48.9,44.0,45.6,42.1,38.2,89,78,66,30.16,29.95,6,1,13,0.04
2013-2-14,63.1,51.2,41.3,47.6,43.1,37.6,87,75,51,30.22,30.15,3,1,8,0.00
2013-2-15,64.2,53.2,46.9,51.6,45.7,43.3,94,77,48,30.21,30.10,8,2,12,0.01
2013-2-16,59.5,52.2,47.2,45.9,44.1,42.0,82,75,56,30.21,30.12,4,1,9,0.00
2013-2-17,56.7,52.2,45.4,49.4,45.8,40.1,87,79,72,30.12,29.96,7,1,10,0.00
2013-2-18,60.2,54.1,50.4,52.6,49.8,48.0,92,86,69,30.00,29.90,5,1,10,0.14
2013-2-19,59.9,52.7,47.4,50.3,46.7,41.2,92,81,60,30.02,29.95,7,2,14,0.00
2013-2-20,60.7,51.6,46.6,41.3,38.5,34.9,79,62,45,29.98,29.89,4,1,11,0.00
2013-2-21,63.6,52.8,43.0,53.0,44.6,36.0,86,74,53,29.93,29.71,7,2,12,0.00
2013-2-22,59.9,55.4,50.7,50.0,47.7,44.2,90,76,57,29.71,29.53,11,4,23,0.17
2013-2-23,52.6,44.8,39.1,48.9,41.1,36.1,93,87,75,29.88,29.35,11,3,20,0.17
2013-2-24,50.1,44.1,39.1,37.4,32.3,27.0,91,64,46,29.99,29.88,9,2,21,0.05
2013-2-25,45.8,40.6,37.8,39.6,36.3,33.8,91,85,67,30.13,29.98,6,1,14,0.14
2013-2-26,48.7,42.8,36.8,38.0,35.3,31.4,89,75,62,30.21,30.10,9,3,18,0.01
2013-2-27,53.1,44.1,35.3,39.8,35.2,29.6,81,71,57,30.22,30.11,6,2,12,0.00
2013-2-28,52.1,49.2,45.3,49.3,44.9,38.4,92,85,70,30.11,29.83,8,3,15,1.40
2013-3-1,56.8,49.4,45.3,48.2,45.4,43.3,93,86,67,29.86,29.68,13,2,27,0.22
2013-3-2,58.7,52.5,44.2,45.8,42.7,38.1,84,70,49,30.14,29.85,15,6,28,0.00
2013-3-3,61.9,50.9,41.8,49.2,42.6,36.1,88,74,51,30.13,30.00,5,1,10,0.00
2013-3-4,61.7,55.8,51.4,53.5,50.9,47.3,90,84,72,30.01,29.74,6,2,10,0.03
2013-3-5,67.0,59.3,55.4,55.2,53.2,51.8,90,81,62,29.73,29.42,4,1,10,0.11
2013-3-6,66.8,58.2,55.1,55.2,53.3,50.3,92,85,56,29.59,29.28,10,4,19,0.02
2013-3-7,71.7,61.6,55.3,56.3,52.9,49.0,92,75,48,29.75,29.58,11,5,20,0.00
2013-3-8,69.5,63.1,55.7,56.3,49.7,43.9,92,64,41,29.80,29.62,13,6,22,0.00
2013-3-9,70.3,60.7,54.0,53.9,49.2,40.5,94,69,36,29.78,29.70,14,6,24,0.00
2013-3-10,64.4,58.1,52.7,53.4,47.4,41.1,92,70,45,29.73,29.64,13,5,26,0.00
2013-3-11,63.8,57.9,52.0,47.1,43.6,39.6,76,60,43,29.72,29.64,11,5,18,0.00
2013-3-12,62.9,57.3,51.3,43.8,41.4,36.9,75,56,40,29.66,29.55,13,5,27,0.00
2013-3-13,59.2,48.7,41.4,49.8,43.7,37.8,92,83,61,29.64,29.36,18,3,34,1.51
2013-3-14,52.0,47.7,42.3,40.3,36.0,29.3,91,65,43,29.85,29.64,13,5,26,0.10
2013-3-15,57.4,50.0,42.3,38.0,33.8,29.1,75,55,36,30.13,29.85,7,3,14,0.00
2013-3-16,47.1,41.0,39.3,38.5,31.8,27.6,77,70,58,30.11,30.05,2,0,4,0.00
2013-3-17,57.3,56.8,56.4,54.1,53.8,53.5,91,90,89,29.54,29.50,8,5,15,0.31
2013-3-18,64.0,57.4,49.4,54.0,43.0,29.6,93,62,30,29.81,29.46,9,4,20,0.13
2013-3-19,67.0,55.3,45.3,52.9,48.1,41.3,92,78,55,29.81,29.60,6,1,9,0.00
2013-3-20,58.2,54.0,49.3,51.4,48.0,43.8,90,81,63,30.14,29.57,9,3,20,0.01
2013-3-21,63.8,55.3,48.0,52.7,48.8,43.5,91,79,63,30.15,29.99,8,4,16,0.00
2013-3-22,70.3,56.9,45.8,52.8,48.3,41.5,92,76,44,29.99,29.75,7,3,14,0.01
2013-3-23,65.6,58.1,53.8,53.7,50.9,48.6,93,78,55,29.77,29.61,8,3,14,0.00
2013-3-24,66.4,58.1,52.5,51.9,48.5,44.0,89,72,47,29.66,29.52,9,2,14,0.00
2013-3-25,66.2,59.8,52.6,50.4,44.9,39.8,83,59,39,29.79,29.64,11,6,23,0.00
2013-3-26,62.4,61.7,60.4,48.6,48.1,47.8,65,61,60,29.66,29.58,10,8,26,0.00
2013-3-27,68.5,60.8,55.6,55.4,53.0,49.4,92,77,52,29.72,29.57,11,4,18,0.00
2013-3-28,70.0,61.8,55.7,58.1,54.3,51.8,93,78,56,29.88,29.66,8,4,19,0.00
2013-3-29,69.7,60.8,53.7,54.7,52.4,49.5,92,75,49,29.87,29.72,10,4,22,0.00
2013-3-30,67.9,65.0,57.4,54.2,45.8,40.2,89,51,39,29.82,29.62,16,11,33,0.00
2013-3-31,70.2,63.1,57.4,53.3,44.1,37.6,85,52,32,29.81,29.66,9,5,20,0.00
2013-4-1,66.5,60.5,53.2,56.2,50.8,42.3,93,72,46,29.67,29.44,12,5,20,0.27
2013-4-2,64.9,56.8,48.8,50.8,44.5,39.5,86,66,40,29.82,29.67,10,4,20,0.00
2013-4-3,70.4,60.1,49.0,50.3,44.4,40.0,85,59,35,29.83,29.63,6,2,12,0.00
2013-4-4,58.3,57.4,56.4,51.7,49.0,46.8,83,74,67,29.65,29.50,3,1,7,0.00
2013-4-5,55.9,53.6,51.3,52.5,50.1,47.0,90,88,85,29.75,29.70,5,1,8,0.50
2013-4-6,55.1,49.8,46.4,46.4,40.7,36.0,86,72,51,29.98,29.75,10,3,23,0.14
2013-4-7,65.7,54.9,47.6,45.3,41.5,35.7,76,62,37,30.05,29.97,9,2,18,0.00
2013-4-8,66.4,58.1,51.2,51.1,47.1,44.8,86,68,50,29.96,29.85,10,5,20,0.00
2013-4-13,55.2,55.2,55.2,36.4,36.4,36.4,49,49,49,30.26,30.26,0,0,0,0.00
2013-4-14,76.8,64.9,53.5,50.8,42.4,35.4,59,45,31,30.31,30.25,7,2,11,0.00
2013-4-15,79.7,66.9,56.7,50.5,45.3,41.3,67,47,27,30.26,30.17,6,1,9,0.00
2013-4-16,81.7,65.7,54.5,57.5,49.6,41.6,78,58,27,30.22,30.17,7,1,15,0.00
2013-4-17,81.3,66.7,56.6,56.2,52.7,44.0,85,64,29,30.24,30.17,6,1,10,0.00
2013-4-18,78.8,66.5,56.3,57.0,50.6,42.6,78,59,30,30.21,30.13,6,1,12,0.00
2013-4-19,68.6,60.4,55.4,55.1,51.2,47.4,93,73,58,30.24,30.12,10,4,18,0.00
2013-4-20,65.7,58.4,50.5,47.4,43.9,40.5,74,59,42,30.24,30.13,9,3,15,0.00
2013-4-21,65.1,57.3,50.0,52.1,48.5,38.6,84,73,38,30.17,30.07,8,2,12,0.00
2013-4-22,65.5,57.0,51.7,51.4,47.3,39.3,88,72,41,30.14,30.05,7,2,13,0.00
2013-4-23,66.1,57.5,48.6,51.3,45.5,41.2,84,66,44,30.24,30.13,11,4,22,0.00
2013-4-24,63.4,58.3,54.0,54.4,52.2,49.0,89,80,67,30.24,30.14,14,7,21,0.07
2013-4-25,61.8,59.5,57.5,57.7,55.6,54.1,94,87,78,30.13,29.96,14,7,25,0.45
2013-4-26,67.3,60.4,58.8,60.1,57.2,55.4,94,89,72,30.01,29.82,8,3,15,0.94
2013-4-27,61.2,56.2,51.3,57.2,54.1,49.6,95,93,81,29.84,29.70,8,3,15,0.32
2013-4-28,62.8,56.4,51.3,59.7,53.8,49.7,95,91,82,29.85,29.71,8,3,15,0.50
2013-4-29,62.0,56.6,54.4,57.8,54.5,53.0,95,93,85,29.86,29.73,10,4,21,0.34
2013-4-30,70.1,58.3,50.3,53.9,50.8,47.2,93,78,48,30.04,29.85,8,3,14,0.00
2013-5-1,70.0,59.8,51.5,53.4,50.7,48.1,89,73,50,30.09,30.02,7,2,12,0.00
2013-5-2,69.4,60.3,51.5,54.8,50.9,46.5,85,72,53,30.09,30.01,7,2,11,0.00
2013-5-3,66.4,59.3,50.7,53.6,49.1,46.0,86,70,53,30.13,30.03,9,3,16,0.00
2013-5-4,69.1,60.1,50.4,52.5,48.2,44.8,82,66,46,30.18,30.09,8,2,13,0.00
2013-5-5,72.3,62.6,53.3,55.8,50.0,43.9,87,65,43,30.18,30.11,9,3,16,0.00
2013-5-6,76.3,64.3,53.1,57.7,53.4,46.6,89,70,35,30.17,30.09,7,4,15,0.00
2013-5-7,82.8,68.5,58.5,62.4,54.9,46.4,94,67,30,30.12,30.00,10,4,18,0.00
2013-5-8,86.5,72.4,62.3,58.3,54.7,50.8,69,55,35,30.05,29.96,7,1,12,0.00
2013-5-9,83.8,72.2,64.3,60.7,57.1,49.7,85,61,35,30.04,29.96,8,2,15,0.00
2013-5-10,70.5,65.1,59.5,60.6,54.7,48.9,88,70,49,30.14,29.96,9,4,18,0.00
2013-5-11,70.4,62.6,57.6,55.7,53.8,51.8,84,73,57,30.18,30.10,6,2,11,0.00
2013-5-12,71.8,62.9,54.7,57.0,54.3,50.9,88,74,57,30.22,30.15,8,2,13,0.00
2013-5-13,74.9,60.7,53.8,55.8,51.7,49.1,87,74,49,30.23,30.09,8,2,12,0.00
2013-5-14,75.3,66.2,56.4,60.0,56.2,52.5,87,71,53,30.11,29.78,6,2,11,0.00
2013-5-15,70.2,63.5,58.0,60.0,56.5,52.6,88,78,65,29.77,29.51,8,2,12,0.00
2013-5-16,65.4,59.8,53.4,59.6,50.1,37.1,93,72,36,29.66,29.47,10,3,18,0.16
2013-5-17,67.4,59.5,51.0,55.6,50.1,44.8,88,72,49,29.71,29.58,11,4,25,0.37
2013-5-18,66.1,61.8,58.6,57.9,50.6,40.9,92,69,40,29.91,29.66,11,6,21,0.27
2013-5-19,69.2,61.8,54.6,51.3,46.5,40.0,78,59,38,30.10,29.90,9,4,20,0.00
2013-5-20,66.8,59.0,53.5,51.8,48.9,45.4,79,69,53,30.11,30.07,7,1,15,0.00
2013-5-21,61.3,57.4,54.2,54.2,51.5,48.3,88,81,70,30.11,29.90,10,3,22,0.19
2013-5-22,72.3,63.7,54.5,55.2,51.2,48.6,85,65,44,29.97,29.89,11,4,20,0.07
2013-5-23,69.9,63.4,55.5,54.0,51.8,49.9,83,67,52,29.98,29.91,10,4,21,0.00
2013-5-24,69.9,60.6,55.9,52.8,48.1,41.8,83,65,42,30.09,29.94,7,3,12,0.00
2013-5-25,70.5,61.1,53.4,52.8,45.4,37.2,86,59,31,30.14,30.01,9,4,19,0.00
2013-5-26,70.8,61.5,53.3,51.6,49.4,46.6,80,65,49,30.16,30.03,7,2,13,0.00
2013-5-27,67.1,60.9,53.9,59.1,53.8,47.8,90,78,71,30.07,29.84,6,2,11,0.01
2013-5-28,76.8,64.9,55.0,58.7,53.8,46.3,93,71,36,29.88,29.75,9,4,18,0.00
2013-5-29,68.7,61.8,56.5,54.8,47.9,38.0,89,64,34,29.93,29.84,10,3,21,0.00
2013-5-30,70.6,62.0,54.0,49.9,45.0,36.1,75,55,31,29.98,29.87,10,4,20,0.00
2013-5-31,73.4,64.9,59.3,52.3,48.7,43.8,69,57,36,30.01,29.87,12,4,20,0.00
2013-6-1,79.5,69.0,61.3,52.4,47.7,40.5,70,50,26,30.08,29.95,10,3,18,0.00
2013-6-2,63.3,61.0,58.7,51.2,50.2,48.3,71,68,63,30.09,30.05,3,0,6,0.00
2013-6-4,74.5,74.5,74.5,48.6,48.6,48.6,40,40,40,29.86,29.86,249,249,249,0.00
2013-6-5,74.5,74.5,74.5,48.6,48.6,48.6,40,40,40,29.86,29.86,249,249,249,0.00
2013-6-6,74.5,74.5,74.5,48.6,48.6,48.6,40,40,40,29.86,29.86,249,249,249,0.00
2013-6-7,74.5,74.5,74.5,48.6,48.6,48.6,40,40,40,29.86,29.86,249,249,249,0.00
2013-6-8,74.5,74.5,74.5,48.6,48.6,48.6,40,40,40,29.86,29.86,249,249,249,0.00
2013-6-9,74.7,72.3,63.6,57.0,51.1,48.6,74,49,40,29.93,29.86,249,151,249,0.00
2013-6-10,77.4,70.2,62.5,59.3,56.3,52.1,76,62,50,30.08,29.92,8,2,13,0.00
2013-6-11,81.6,71.9,60.4,64.9,60.7,52.1,89,69,53,30.13,30.06,11,4,20,0.00
2013-6-12,86.3,75.5,63.1,61.5,55.9,46.7,83,54,34,30.17,30.11,7,2,15,0.00
2013-6-13,89.6,73.8,65.3,58.0,54.6,50.2,70,53,31,30.15,30.09,4,0,8,0.00